createdAt,value
2023-04-18T00:02:23.133Z,24.27
2023-04-18T00:04:50.408Z,24.26
2023-04-18T00:07:17.305Z,24.26
2023-04-18T00:09:44.075Z,24.27
2023-04-18T00:12:11.032Z,24.25
2023-04-18T00:14:38.007Z,24.22
2023-04-18T00:17:08.796Z,24.24
2023-04-18T00:19:37.119Z,24.22
2023-04-18T00:22:03.629Z,24.17
2023-04-18T00:24:30.156Z,24.25
2023-04-18T00:26:57.094Z,24.25
2023-04-18T00:29:23.671Z,24.27
2023-04-18T00:31:52.663Z,24.23
2023-04-18T00:34:19.282Z,24.27
2023-04-18T00:36:45.830Z,24.28
2023-04-18T00:39:12.352Z,24.27
2023-04-18T00:41:38.903Z,24.31
2023-04-18T00:44:05.562Z,24.31
2023-04-18T00:46:32.149Z,24.28
2023-04-18T00:48:58.729Z,24.11
2023-04-18T00:51:25.623Z,24.22
2023-04-18T00:53:52.137Z,24.31
2023-04-18T00:56:18.738Z,24.32
2023-04-18T00:58:45.272Z,24.27
2023-04-18T01:01:13.362Z,24.27
2023-04-18T01:03:40.865Z,24.30
2023-04-18T01:06:07.762Z,24.29
2023-04-18T01:08:34.467Z,24.26
2023-04-18T01:11:01.016Z,24.28
2023-04-18T01:13:27.605Z,24.25
2023-04-18T01:15:55.607Z,24.28
2023-04-18T01:18:22.586Z,24.27
2023-04-18T01:20:50.476Z,24.30
2023-04-18T01:23:19.688Z,24.25
2023-04-18T01:25:46.364Z,24.28
2023-04-18T01:28:13.652Z,24.26
2023-04-18T01:30:40.288Z,24.25
2023-04-18T01:33:06.888Z,24.26
2023-04-18T01:35:33.520Z,24.28
2023-04-18T01:38:00.177Z,24.26
2023-04-18T01:40:27.271Z,24.20
2023-04-18T01:42:53.829Z,24.17
2023-04-18T01:45:20.331Z,24.21
2023-04-18T01:47:47.083Z,24.06
2023-04-18T01:50:13.748Z,24.20
2023-04-18T01:52:42.591Z,24.13
2023-04-18T01:55:09.586Z,24.20
2023-04-18T01:57:36.724Z,24.21
2023-04-18T02:00:06.102Z,24.18
2023-04-18T02:02:41.108Z,24.19
2023-04-18T02:05:08.164Z,24.26
2023-04-18T02:07:38.216Z,24.20
2023-04-18T02:10:05.213Z,24.07
2023-04-18T02:12:31.945Z,24.21
2023-04-18T02:14:59.557Z,24.21
2023-04-18T02:17:26.207Z,24.22
2023-04-18T02:19:54.433Z,24.11
2023-04-18T02:22:21.081Z,24.21
2023-04-18T02:24:47.614Z,24.18
2023-04-18T02:27:15.242Z,24.23
2023-04-18T02:29:41.858Z,24.11
2023-04-18T02:32:09.033Z,24.24
2023-04-18T02:34:36.355Z,24.12
2023-04-18T02:37:03.032Z,24.22
2023-04-18T02:39:29.567Z,24.22
2023-04-18T02:41:56.103Z,24.23
2023-04-18T02:44:24.705Z,24.26
2023-04-18T02:46:51.455Z,24.25
2023-04-18T02:49:18.470Z,24.20
2023-04-18T02:51:45.127Z,24.24
2023-04-18T02:54:11.978Z,24.19
2023-04-18T02:56:53.809Z,24.21
2023-04-18T02:59:37.557Z,24.25
2023-04-18T03:02:13.271Z,24.25
2023-04-18T03:04:47.309Z,24.25
2023-04-18T03:07:14.048Z,24.23
2023-04-18T03:09:41.502Z,24.19
2023-04-18T03:12:17.431Z,24.16
2023-04-18T03:14:44.546Z,23.99
2023-04-18T03:17:12.902Z,24.21
2023-04-18T03:19:42.989Z,24.15
2023-04-18T03:22:13.385Z,24.03
2023-04-18T03:24:48.725Z,24.22
2023-04-18T03:27:16.824Z,24.23
2023-04-18T03:29:45.263Z,24.26
2023-04-18T03:32:12.527Z,24.19
2023-04-18T03:34:39.103Z,24.23
2023-04-18T03:37:07.720Z,24.24
2023-04-18T03:39:40.612Z,24.23
2023-04-18T03:42:07.362Z,24.07
2023-04-18T03:44:34.718Z,24.23
2023-04-18T03:47:01.303Z,24.15
2023-04-18T03:49:30.286Z,24.21
2023-04-18T03:51:56.902Z,24.13
2023-04-18T03:54:25.312Z,24.23
2023-04-18T03:56:51.869Z,24.18
2023-04-18T03:59:18.907Z,24.19
2023-04-18T04:01:49.249Z,24.28
2023-04-18T04:04:16.384Z,24.26
2023-04-18T04:06:43.161Z,24.26
2023-04-18T04:09:09.821Z,24.22
2023-04-18T04:11:36.444Z,24.23
2023-04-18T04:14:04.079Z,24.20
2023-04-18T04:16:37.603Z,24.23
2023-04-18T04:19:04.841Z,24.22
2023-04-18T04:21:37.600Z,24.25
2023-04-18T04:24:06.911Z,24.27
2023-04-18T04:26:37.690Z,24.28
2023-04-18T04:29:13.722Z,24.32
2023-04-18T04:31:42.179Z,24.21
2023-04-18T04:34:08.888Z,24.33
2023-04-18T04:36:36.066Z,24.31
2023-04-18T04:39:05.225Z,24.26
2023-04-18T04:41:42.547Z,24.28
2023-04-18T04:44:10.020Z,24.36
2023-04-18T04:46:40.152Z,24.13
2023-04-18T04:49:13.670Z,23.75
2023-04-18T04:51:41.956Z,23.52
2023-04-18T04:54:08.792Z,23.51
2023-04-18T04:56:35.437Z,23.39
2023-04-18T04:59:02.877Z,23.53
2023-04-18T05:01:36.238Z,23.62
2023-04-18T05:04:03.834Z,23.63
2023-04-18T05:06:31.166Z,23.68
2023-04-18T05:08:59.516Z,23.76
2023-04-18T05:11:26.100Z,23.79
2023-04-18T05:13:52.722Z,23.81
2023-04-18T05:16:19.315Z,23.78
2023-04-18T05:18:46.039Z,23.83
2023-04-18T05:21:12.583Z,23.84
2023-04-18T05:23:39.873Z,23.79
2023-04-18T05:26:06.498Z,23.92
2023-04-18T05:28:33.079Z,23.97
2023-04-18T05:31:02.299Z,23.97
2023-04-18T05:33:29.460Z,23.94
2023-04-18T05:35:56.263Z,23.84
2023-04-18T05:38:22.932Z,23.93
2023-04-18T05:40:51.086Z,23.99
2023-04-18T05:43:20.688Z,23.90
2023-04-18T05:45:47.434Z,23.99
2023-04-18T05:48:14.078Z,24.02
2023-04-18T05:50:40.681Z,24.03
2023-04-18T05:53:08.394Z,24.03
2023-04-18T05:55:34.944Z,24.05
2023-04-18T05:58:01.501Z,24.08
2023-04-18T06:00:28.408Z,24.08
2023-04-18T06:02:55.269Z,24.10
2023-04-18T06:05:22.107Z,24.12
2023-04-18T06:07:48.874Z,24.11
2023-04-18T06:10:15.774Z,24.13
2023-04-18T06:12:42.436Z,24.11
2023-04-18T06:15:09.849Z,23.92
2023-04-18T06:17:36.468Z,24.16
2023-04-18T06:20:04.869Z,24.18
2023-04-18T06:22:31.571Z,24.19
2023-04-18T06:24:58.158Z,24.16
2023-04-18T06:27:31.196Z,24.19
2023-04-18T06:29:58.559Z,24.20
2023-04-18T06:32:25.279Z,24.20
2023-04-18T06:34:52.893Z,24.21
2023-04-18T06:37:19.499Z,24.22
2023-04-18T06:39:46.049Z,24.30
2023-04-18T06:42:12.582Z,24.30
2023-04-18T06:44:44.239Z,24.33
2023-04-18T06:47:10.864Z,24.43
2023-04-18T06:49:37.422Z,24.31
2023-04-18T06:52:03.934Z,24.43
2023-04-18T06:54:30.547Z,24.50
2023-04-18T06:56:57.305Z,24.53
2023-04-18T06:59:23.908Z,24.50
2023-04-18T07:01:51.056Z,24.61
2023-04-18T07:04:17.708Z,24.54
2023-04-18T07:06:44.525Z,24.57
2023-04-18T07:09:11.333Z,24.64
2023-04-18T07:11:39.062Z,24.72
2023-04-18T07:14:05.570Z,24.67
2023-04-18T07:16:32.201Z,24.71
2023-04-18T07:18:58.853Z,24.64
2023-04-18T07:21:25.612Z,24.76
2023-04-18T07:23:52.232Z,24.77
2023-04-18T07:26:19.029Z,24.73
2023-04-18T07:28:45.646Z,24.73
2023-04-18T07:31:14.348Z,24.72
2023-04-18T07:33:41.000Z,24.74
2023-04-18T07:36:07.766Z,24.70
2023-04-18T07:38:35.426Z,24.64
2023-04-18T07:41:02.080Z,24.67
2023-04-18T07:43:28.703Z,24.70
2023-04-18T07:45:55.541Z,24.68
2023-04-18T07:48:22.691Z,24.57
2023-04-18T07:50:49.458Z,24.66
2023-04-18T07:53:16.336Z,24.58
2023-04-18T07:55:45.715Z,24.59
2023-04-18T07:58:12.627Z,24.58
2023-04-18T08:00:39.311Z,24.40
2023-04-18T08:03:07.626Z,24.46
2023-04-18T08:05:34.467Z,24.43
2023-04-18T08:08:01.229Z,24.40
2023-04-18T08:10:27.959Z,24.37
2023-04-18T08:12:54.568Z,24.34
2023-04-18T08:15:21.229Z,24.36
2023-04-18T08:17:49.170Z,24.40
2023-04-18T08:20:15.859Z,24.43
2023-04-18T08:23:01.292Z,24.50
2023-04-18T08:25:29.284Z,24.58
2023-04-18T08:27:55.955Z,24.74
2023-04-18T08:30:22.506Z,24.72
2023-04-18T08:32:49.555Z,24.78
2023-04-18T08:35:16.395Z,24.73
2023-04-18T08:37:43.414Z,24.70
2023-04-18T08:40:10.163Z,24.79
2023-04-18T08:42:39.445Z,24.84
2023-04-18T08:45:06.842Z,24.83
2023-04-18T08:47:35.118Z,24.91
2023-04-18T08:50:01.940Z,24.94
2023-04-18T08:52:29.495Z,24.95
2023-04-18T08:54:57.205Z,24.91
2023-04-18T08:57:26.746Z,24.96
2023-04-18T08:59:54.017Z,24.98
2023-04-18T09:02:23.902Z,24.95
2023-04-18T09:04:53.010Z,24.86
2023-04-18T09:07:20.747Z,24.94
2023-04-18T09:09:48.351Z,24.98
2023-04-18T09:12:19.476Z,24.98
2023-04-18T09:14:46.977Z,24.87
2023-04-18T09:17:18.190Z,24.93
2023-04-18T09:19:46.388Z,24.95
2023-04-18T09:22:13.147Z,24.92
2023-04-18T09:24:40.113Z,24.91
2023-04-18T09:27:11.922Z,24.88
2023-04-18T09:29:47.103Z,24.88
2023-04-18T09:32:40.033Z,24.94
2023-04-18T09:35:06.836Z,24.90
2023-04-18T09:37:33.386Z,24.86
2023-04-18T09:40:00.010Z,24.67
2023-04-18T09:42:28.818Z,24.77
2023-04-18T09:45:04.060Z,24.78
2023-04-18T09:47:31.360Z,24.76
2023-04-18T09:49:58.043Z,24.80
2023-04-18T09:52:25.796Z,24.78
2023-04-18T09:54:58.270Z,24.86
2023-04-18T09:57:27.087Z,24.86
2023-04-18T10:00:24.188Z,24.79
2023-04-18T10:03:09.830Z,24.80
2023-04-18T10:05:38.318Z,24.73
2023-04-18T10:08:05.778Z,24.77
2023-04-18T10:10:32.586Z,24.77
2023-04-18T10:13:00.139Z,24.63
2023-04-18T10:15:28.062Z,24.73
2023-04-18T10:18:04.579Z,24.73
2023-04-18T10:20:32.834Z,24.74
2023-04-18T10:22:59.563Z,24.79
2023-04-18T10:25:38.201Z,24.77
2023-04-18T10:28:08.329Z,24.79
2023-04-18T10:30:40.975Z,24.77
2023-04-18T10:33:31.055Z,24.78
2023-04-18T10:36:08.492Z,24.79
2023-04-18T10:39:05.764Z,24.80
2023-04-18T10:41:33.212Z,24.81
2023-04-18T10:44:09.149Z,24.80
2023-04-18T10:46:36.584Z,24.78
2023-04-18T10:49:18.861Z,24.81
2023-04-18T10:51:49.581Z,24.82
2023-04-18T10:54:38.190Z,24.91
2023-04-18T10:57:05.346Z,24.85
2023-04-18T10:59:32.909Z,24.92
2023-04-18T11:02:11.987Z,24.86
2023-04-18T11:04:39.295Z,24.78
2023-04-18T11:07:05.931Z,24.84
2023-04-18T11:09:32.504Z,24.73
2023-04-18T11:12:07.355Z,24.67
2023-04-18T11:14:43.951Z,24.71
2023-04-18T11:17:17.722Z,24.68
2023-04-18T11:19:44.403Z,24.57
2023-04-18T11:22:11.638Z,24.65
2023-04-18T11:24:38.245Z,24.67
2023-04-18T11:27:04.905Z,24.83
2023-04-18T11:29:31.562Z,24.76
2023-04-18T11:31:58.776Z,24.71
2023-04-18T11:34:30.175Z,24.90
2023-04-18T11:36:56.738Z,24.92
2023-04-18T11:39:23.331Z,25.03
2023-04-18T11:41:53.093Z,24.93
2023-04-18T11:44:23.547Z,25.01
2023-04-18T11:46:51.399Z,25.01
2023-04-18T11:49:31.975Z,25.05
2023-04-18T11:51:59.482Z,25.02
2023-04-18T11:54:42.223Z,24.95
2023-04-18T11:57:27.324Z,24.97
2023-04-18T11:59:59.009Z,24.91
2023-04-18T12:02:45.819Z,24.94
2023-04-18T12:05:14.517Z,24.88
2023-04-18T12:07:42.541Z,24.90
2023-04-18T12:10:23.674Z,24.91
2023-04-18T12:12:54.031Z,24.92
2023-04-18T12:15:21.702Z,24.91
2023-04-18T12:17:48.561Z,24.74
2023-04-18T12:20:16.013Z,24.87
2023-04-18T12:22:49.566Z,24.85
2023-04-18T12:25:24.964Z,24.80
2023-04-18T12:28:00.720Z,25.02
2023-04-18T12:30:31.742Z,25.00
2023-04-18T12:33:00.339Z,25.04
2023-04-18T12:35:27.171Z,24.99
2023-04-18T12:37:55.056Z,24.92
2023-04-18T12:40:22.900Z,24.98
2023-04-18T12:42:50.388Z,24.96
2023-04-18T12:45:17.409Z,24.75
2023-04-18T12:47:45.692Z,24.95
2023-04-18T12:50:18.195Z,24.97
2023-04-18T12:52:45.024Z,25.00
2023-04-18T12:55:11.816Z,25.02
2023-04-18T12:57:38.461Z,25.08
2023-04-18T13:00:10.303Z,25.14
2023-04-18T13:02:48.860Z,25.23
2023-04-18T13:05:16.705Z,25.21
2023-04-18T13:07:43.454Z,25.26
2023-04-18T13:10:11.744Z,25.27
2023-04-18T13:12:39.492Z,25.23
2023-04-18T13:15:07.043Z,25.27
2023-04-18T13:17:33.803Z,25.29
2023-04-18T13:20:00.741Z,25.28
2023-04-18T13:22:28.437Z,25.31
2023-04-18T13:24:55.154Z,25.40
2023-04-18T13:27:21.724Z,25.42
2023-04-18T13:29:48.339Z,25.44
2023-04-18T13:32:15.047Z,25.42
2023-04-18T13:34:46.022Z,25.45
2023-04-18T13:37:13.084Z,25.43
2023-04-18T13:39:40.197Z,25.46
2023-04-18T13:42:07.749Z,25.52
2023-04-18T13:44:37.753Z,25.61
2023-04-18T13:47:05.170Z,25.57
2023-04-18T13:49:32.524Z,25.60
2023-04-18T13:51:59.120Z,25.57
2023-04-18T13:54:26.590Z,25.51
2023-04-18T13:57:03.074Z,25.51
2023-04-18T13:59:31.184Z,25.49
2023-04-18T14:01:58.019Z,25.47
2023-04-18T14:04:24.981Z,25.44
2023-04-18T14:06:52.097Z,25.55
2023-04-18T14:09:18.800Z,25.58
2023-04-18T14:11:46.198Z,25.48
2023-04-18T14:14:12.869Z,25.70
2023-04-18T14:16:39.508Z,25.75
2023-04-18T14:19:06.521Z,25.75
2023-04-18T14:21:33.350Z,25.77
2023-04-18T14:24:00.128Z,25.72
2023-04-18T14:26:26.666Z,25.63
2023-04-18T14:28:53.274Z,25.50
2023-04-18T14:31:19.980Z,25.43
2023-04-18T14:33:46.631Z,25.37
2023-04-18T14:36:15.125Z,25.28
2023-04-18T14:38:42.136Z,25.23
2023-04-18T14:41:08.732Z,25.14
2023-04-18T14:43:35.398Z,25.10
2023-04-18T14:46:02.095Z,25.09
2023-04-18T14:48:28.838Z,25.06
2023-04-18T14:50:59.108Z,25.14
2023-04-18T14:53:26.362Z,25.28
2023-04-18T14:55:52.981Z,25.32
2023-04-18T14:58:19.530Z,25.31
2023-04-18T15:00:46.223Z,25.33
2023-04-18T15:03:13.034Z,25.35
2023-04-18T15:05:42.940Z,25.30
2023-04-18T15:08:10.982Z,25.33
2023-04-18T15:10:38.346Z,25.37
2023-04-18T15:13:05.217Z,25.29
2023-04-18T15:15:35.380Z,25.30
2023-04-18T15:18:02.625Z,25.26
2023-04-18T15:20:29.678Z,25.32
2023-04-18T15:22:56.881Z,25.27
2023-04-18T15:25:23.612Z,25.26
2023-04-18T15:27:50.190Z,25.25
2023-04-18T15:30:16.794Z,25.24
2023-04-18T15:32:44.244Z,25.20
2023-04-18T15:35:11.118Z,25.22
2023-04-18T15:37:37.776Z,25.23
2023-04-18T15:40:06.832Z,25.23
2023-04-18T15:42:33.692Z,25.25
2023-04-18T15:45:00.378Z,25.20
2023-04-18T15:47:27.105Z,25.21
2023-04-18T15:49:53.801Z,25.28
2023-04-18T15:52:20.470Z,25.18
2023-04-18T15:54:47.100Z,25.25
2023-04-18T15:57:13.860Z,25.22
2023-04-18T15:59:40.496Z,25.15
2023-04-18T16:02:08.081Z,25.23
2023-04-18T16:04:34.829Z,25.25
2023-04-18T16:07:01.578Z,25.34
2023-04-18T16:09:28.269Z,25.43
2023-04-18T16:11:54.913Z,25.47
2023-04-18T16:14:21.537Z,25.46
2023-04-18T16:16:48.205Z,25.38
2023-04-18T16:19:16.645Z,25.37
2023-04-18T16:21:43.203Z,25.36
2023-04-18T16:24:09.791Z,25.15
2023-04-18T16:26:36.449Z,25.31
2023-04-18T16:29:03.046Z,25.30
2023-04-18T16:31:29.674Z,25.25
2023-04-18T16:33:56.453Z,25.29
2023-04-18T16:36:23.040Z,25.27
2023-04-18T16:38:49.702Z,25.30
2023-04-18T16:41:16.328Z,25.23
2023-04-18T16:43:42.973Z,25.21
2023-04-18T16:46:11.608Z,25.09
2023-04-18T16:48:38.746Z,25.04
2023-04-18T16:51:05.776Z,24.97
2023-04-18T16:53:32.414Z,24.94
2023-04-18T16:56:00.821Z,24.93
2023-04-18T16:58:27.449Z,24.94
2023-04-18T17:00:54.069Z,24.96
2023-04-18T17:03:20.874Z,25.07
2023-04-18T17:05:47.624Z,25.14
2023-04-18T17:08:14.164Z,25.00
2023-04-18T17:10:40.799Z,25.28
2023-04-18T17:13:07.745Z,25.27
2023-04-18T17:15:38.350Z,25.27
2023-04-18T17:18:05.165Z,25.31
2023-04-18T17:20:31.943Z,25.24
2023-04-18T17:22:58.582Z,25.27
2023-04-18T17:25:25.191Z,25.31
2023-04-18T17:27:51.858Z,25.34
2023-04-18T17:30:18.609Z,25.39
2023-04-18T17:32:49.222Z,25.38
2023-04-18T17:35:16.390Z,25.41
2023-04-18T17:37:43.106Z,25.39
2023-04-18T17:40:10.264Z,25.36
2023-04-18T17:42:37.005Z,25.30
2023-04-18T17:45:07.580Z,25.28
2023-04-18T17:47:34.609Z,25.26
2023-04-18T17:50:01.392Z,25.10
2023-04-18T17:52:29.229Z,25.03
2023-04-18T17:54:56.476Z,24.98
2023-04-18T17:57:23.479Z,24.95
2023-04-18T17:59:50.237Z,24.92
2023-04-18T18:02:17.095Z,24.98
2023-04-18T18:04:44.069Z,25.02
2023-04-18T18:07:10.909Z,24.97
2023-04-18T18:09:37.719Z,24.96
2023-04-18T18:12:07.017Z,24.96
2023-04-18T18:14:33.659Z,24.92
2023-04-18T18:17:00.674Z,24.90
2023-04-18T18:19:27.308Z,24.87
2023-04-18T18:21:56.551Z,24.84
2023-04-18T18:24:25.522Z,24.92
2023-04-18T18:26:52.320Z,24.90
2023-04-18T18:29:19.773Z,25.07
2023-04-18T18:31:46.473Z,25.10
2023-04-18T18:34:13.119Z,24.99
2023-04-18T18:36:40.263Z,24.99
2023-04-18T18:39:06.963Z,25.10
2023-04-18T18:41:33.652Z,25.14
2023-04-18T18:44:00.355Z,25.08
2023-04-18T18:46:27.656Z,25.05
2023-04-18T18:48:54.376Z,25.03
2023-04-18T18:51:21.068Z,24.99
2023-04-18T18:53:47.731Z,25.09
2023-04-18T18:56:14.611Z,25.16
2023-04-18T18:58:43.659Z,25.18
2023-04-18T19:01:11.573Z,25.09
2023-04-18T19:03:38.573Z,25.13
2023-04-18T19:06:07.275Z,25.08
2023-04-18T19:08:34.177Z,25.10
2023-04-18T19:11:00.954Z,24.96
2023-04-18T19:13:27.705Z,24.98
2023-04-18T19:15:54.398Z,24.94
2023-04-18T19:18:21.344Z,24.98
2023-04-18T19:20:50.032Z,24.99
2023-04-18T19:23:20.008Z,25.03
2023-04-18T19:25:46.969Z,25.02
2023-04-18T19:28:14.427Z,25.13
2023-04-18T19:30:43.372Z,25.11
2023-04-18T19:33:10.887Z,25.13
2023-04-18T19:35:42.636Z,25.12
2023-04-18T19:38:10.766Z,25.15
2023-04-18T19:40:37.863Z,25.16
2023-04-18T19:43:07.867Z,25.22
2023-04-18T19:45:34.812Z,25.06
2023-04-18T19:48:02.354Z,25.18
2023-04-18T19:50:29.259Z,25.12
2023-04-18T19:52:56.583Z,25.23
2023-04-18T19:55:25.430Z,25.26
2023-04-18T19:57:58.997Z,25.28
2023-04-18T20:00:27.145Z,25.25
2023-04-18T20:02:56.343Z,25.24
2023-04-18T20:05:25.455Z,25.19
2023-04-18T20:07:52.181Z,25.26
2023-04-18T20:10:24.743Z,25.18
2023-04-18T20:12:51.505Z,25.21
2023-04-18T20:15:18.356Z,25.26
2023-04-18T20:17:45.069Z,25.26
2023-04-18T20:20:12.422Z,25.26
2023-04-18T20:22:40.385Z,25.25
2023-04-18T20:25:07.728Z,25.24
2023-04-18T20:27:34.513Z,25.23
2023-04-18T20:30:01.207Z,25.24
2023-04-18T20:32:28.070Z,25.03
2023-04-18T20:34:54.776Z,25.17
2023-04-18T20:37:21.585Z,25.17
2023-04-18T20:39:48.270Z,25.16
2023-04-18T20:42:14.875Z,25.07
2023-04-18T20:44:46.914Z,25.16
2023-04-18T20:47:15.490Z,25.18
2023-04-18T20:49:42.660Z,25.10
2023-04-18T20:52:14.313Z,25.11
2023-04-18T20:54:41.763Z,25.03
2023-04-18T20:57:08.411Z,24.96
2023-04-18T20:59:35.190Z,25.00
2023-04-18T21:02:02.069Z,24.95
2023-04-18T21:04:29.323Z,25.01
2023-04-18T21:06:56.096Z,24.93
2023-04-18T21:09:23.074Z,24.81
2023-04-18T21:11:49.654Z,24.90
2023-04-18T21:14:17.212Z,24.80
2023-04-18T21:16:44.057Z,24.91
2023-04-18T21:19:11.067Z,24.84
2023-04-18T21:21:37.675Z,24.87
2023-04-18T21:24:05.611Z,24.96
2023-04-18T21:26:32.369Z,24.97
2023-04-18T21:29:04.024Z,25.00
2023-04-18T21:31:32.642Z,25.02
2023-04-18T21:34:00.949Z,25.00
2023-04-18T21:36:28.040Z,24.98
2023-04-18T21:38:55.192Z,24.99
2023-04-18T21:41:22.134Z,24.85
2023-04-18T21:43:49.005Z,25.00
2023-04-18T21:46:15.668Z,25.01
2023-04-18T21:48:43.742Z,24.86
2023-04-18T21:51:10.878Z,24.79
2023-04-18T21:53:38.042Z,24.81
2023-04-18T21:56:05.218Z,24.78
2023-04-18T21:58:31.797Z,24.66
2023-04-18T22:00:58.427Z,24.76
2023-04-18T22:03:26.354Z,24.81
2023-04-18T22:05:53.315Z,24.78
2023-04-18T22:08:20.262Z,24.82
2023-04-18T22:10:50.322Z,24.79
2023-04-18T22:13:18.953Z,24.82
2023-04-18T22:15:46.030Z,24.78
2023-04-18T22:18:14.022Z,24.72
2023-04-18T22:20:43.961Z,24.73
2023-04-18T22:23:10.598Z,24.69
2023-04-18T22:25:37.302Z,24.73
2023-04-18T22:28:04.131Z,24.72
2023-04-18T22:30:31.357Z,24.70
2023-04-18T22:32:58.581Z,24.73
2023-04-18T22:35:25.841Z,24.69
2023-04-18T22:37:52.343Z,24.66
2023-04-18T22:40:18.941Z,24.82
2023-04-18T22:42:45.589Z,24.77
2023-04-18T22:45:13.498Z,24.73
2023-04-18T22:47:40.348Z,24.69
2023-04-18T22:50:07.836Z,24.71
2023-04-18T22:52:34.431Z,24.65
2023-04-18T22:55:03.988Z,24.73
2023-04-18T22:57:30.736Z,24.57
2023-04-18T22:59:57.527Z,24.66
2023-04-18T23:02:24.330Z,24.62
2023-04-18T23:04:51.277Z,24.65
2023-04-18T23:07:17.850Z,24.59
2023-04-18T23:09:44.702Z,24.59
2023-04-18T23:12:11.272Z,24.54
2023-04-18T23:14:38.809Z,24.60
2023-04-18T23:17:08.027Z,24.58
2023-04-18T23:19:34.532Z,24.56
2023-04-18T23:22:01.127Z,24.54
2023-04-18T23:24:27.743Z,24.48
2023-04-18T23:26:54.248Z,24.54
2023-04-18T23:29:20.781Z,24.55
2023-04-18T23:31:47.364Z,24.56
2023-04-18T23:34:14.085Z,24.55
2023-04-18T23:36:40.881Z,24.54
2023-04-18T23:39:08.576Z,24.52
2023-04-18T23:41:35.109Z,24.52
2023-04-18T23:44:02.048Z,24.48
2023-04-18T23:46:28.687Z,24.42
2023-04-18T23:48:55.248Z,24.51
2023-04-18T23:51:22.349Z,24.52
2023-04-18T23:53:48.867Z,24.51
2023-04-18T23:56:15.490Z,24.45
2023-04-18T23:58:42.061Z,24.49
